Time;durP1;ratioP1;P1;durP2;ratioP2;P2;SDS_P1;SDS_P2;PMS_P1;PMS_P2;Temp;Humidity;BMP_temperature;BMP_pressure;BME280_temperature;BME280_humidity;BME280_pressure;Samples;Min_cycle;Max_cycle;Signal;HPM_P1;HPM_P2
2022/09/04 00:00:55;;;;;;;4.60;4.15;;;;;;;;;;4966075;28;20089;-74
2022/09/04 00:03:38;;;;;;;3.83;3.50;;;;;;;;;;4970218;28;20605;-74
2022/09/04 00:06:09;;;;;;;6.63;3.95;;;;;;;;;;4953306;28;20042;-74
2022/09/04 00:08:51;;;;;;;4.15;3.75;;;;;;;;;;4961729;28;20079;-74
2022/09/04 00:11:30;;;;;;;5.22;4.82;;;;;;;;;;4942544;28;20086;-74
2022/09/04 00:14:08;;;;;;;3.88;3.58;;;;;;;;;;4955160;28;20035;-74
2022/09/04 00:16:46;;;;;;;4.97;4.50;;;;;;;;;;4966798;28;20038;-74
2022/09/04 00:19:22;;;;;;;5.03;4.53;;;;;;;;;;4972862;28;20043;-74
2022/09/04 00:21:52;;;;;;;5.22;4.82;;;;;;;;;;4968674;28;20043;-74
2022/09/04 00:24:25;;;;;;;5.63;5.13;;;;;;;;;;4965383;28;20039;-74
2022/09/04 00:26:58;;;;;;;5.07;4.63;;;;;;;;;;4968483;28;20313;-75
2022/09/04 00:29:32;;;;;;;4.65;4.35;;;;;;;;;;4963420;28;20077;-74
2022/09/04 00:32:05;;;;;;;5.63;4.40;;;;;;;;;;4954421;28;20089;-74
2022/09/04 00:34:38;;;;;;;4.78;4.38;;;;;;;;;;4969951;28;20223;-74
2022/09/04 00:37:08;;;;;;;5.65;5.05;;;;;;;;;;4949889;28;20106;-74
2022/09/04 00:39:35;;;;;;;12.27;6.22;;;;;;;;;;4968102;28;20134;-74
2022/09/04 00:42:09;;;;;;;6.10;5.60;;;;;;;;;;4967851;28;20043;-74
2022/09/04 00:44:39;;;;;;;6.47;5.88;;;;;;;;;;4969860;28;20100;-73
2022/09/04 00:47:13;;;;;;;6.50;5.50;;;;;;;;;;4972220;28;20034;-74
2022/09/04 00:50:05;;;;;;;6.25;5.75;;;;;;;;;;4963522;28;20111;-74
2022/09/04 00:52:54;;;;;;;9.75;7.28;;;;;;;;;;4953689;28;20047;-74
2022/09/04 00:55:24;;;;;;;18.77;7.03;;;;;;;;;;4966768;28;20070;-75
2022/09/04 00:58:21;;;;;;;21.83;6.57;;;;;;;;;;4962384;28;20541;-74
2022/09/04 01:00:49;;;;;;;13.95;7.03;;;;;;;;;;4958896;28;20050;-74
2022/09/04 01:03:34;;;;;;;19.17;6.97;;;;;;;;;;4949647;28;20050;-73
2022/09/04 01:06:08;;;;;;;12.80;6.95;;;;;;;;;;4971279;28;20134;-74
2022/09/04 01:08:54;;;;;;;8.57;7.15;;;;;;;;;;4963962;28;20046;-74
2022/09/04 01:11:30;;;;;;;7.72;7.15;;;;;;;;;;4959370;28;20058;-74
2022/09/04 01:13:59;;;;;;;7.97;7.10;;;;;;;;;;4949352;28;20058;-74
2022/09/04 01:16:29;;;;;;;7.57;7.07;;;;;;;;;;4928586;28;20047;-74
2022/09/04 01:19:04;;;;;;;7.82;7.13;;;;;;;;;;4964786;28;20034;-73
2022/09/04 01:21:32;;;;;;;7.07;6.57;;;;;;;;;;4964262;28;20042;-73
2022/09/04 01:24:18;;;;;;;6.70;6.03;;;;;;;;;;4963620;28;20339;-74
2022/09/04 01:26:58;;;;;;;10.07;6.35;;;;;;;;;;4953194;28;20597;-73
2022/09/04 01:29:44;;;;;;;9.48;8.05;;;;;;;;;;4968969;28;20047;-74
2022/09/04 01:32:28;;;;;;;7.82;6.88;;;;;;;;;;4948695;28;20502;-74
2022/09/04 01:34:58;;;;;;;8.93;6.60;;;;;;;;;;4948589;28;20051;-72
2022/09/04 01:37:47;;;;;;;8.40;7.65;;;;;;;;;;4966482;28;20042;-74
2022/09/04 01:40:19;;;;;;;9.30;8.50;;;;;;;;;;4951239;28;20133;-74
2022/09/04 01:42:49;;;;;;;8.40;7.70;;;;;;;;;;4962725;28;20104;-74
2022/09/04 01:45:23;;;;;;;8.75;8.05;;;;;;;;;;4962772;28;20062;-74
2022/09/04 01:47:55;;;;;;;8.90;8.20;;;;;;;;;;4963333;28;20039;-72
2022/09/04 01:50:22;;;;;;;;;;;;;;;;;;4966296;28;20149;-74
2022/09/04 01:55:55;;;;;;;7.90;7.15;;;;;;;;;;4888242;29;20500;-67
2022/09/04 01:58:41;;;;;;;8.70;7.85;;;;;;;;;;4897540;29;20143;-68
2022/09/04 02:01:09;;;;;;;7.40;6.70;;;;;;;;;;4885039;29;20589;-68
2022/09/04 02:03:39;;;;;;;9.25;8.40;;;;;;;;;;4886657;29;20131;-68
2022/09/04 02:06:26;;;;;;;9.35;8.43;;;;;;;;;;4889079;29;20075;-68
2022/09/04 02:08:59;;;;;;;9.50;8.70;;;;;;;;;;4885954;29;20045;-68
2022/09/04 02:11:30;;;;;;;8.35;7.65;;;;;;;;;;4872936;29;20135;-69
2022/09/04 02:14:13;;;;;;;8.65;7.85;;;;;;;;;;4882624;29;20066;-69
2022/09/04 02:17:00;;;;;;;9.32;8.10;;;;;;;;;;4886851;29;20049;-69
2022/09/04 02:19:40;;;;;;;8.18;7.47;;;;;;;;;;4888754;29;20132;-69
2022/09/04 02:22:22;;;;;;;8.23;7.53;;;;;;;;;;4887388;29;20040;-69
2022/09/04 02:24:59;;;;;;;8.23;7.43;;;;;;;;;;4869463;29;20135;-69
2022/09/04 02:27:38;;;;;;;9.38;6.97;;;;;;;;;;4885030;29;20046;-69
2022/09/04 02:30:09;;;;;;;7.55;6.95;;;;;;;;;;4882872;29;20051;-69
2022/09/04 02:32:39;;;;;;;7.57;7.00;;;;;;;;;;4888225;29;20051;-69
2022/09/04 02:35:14;;;;;;;7.82;7.13;;;;;;;;;;4883845;29;20043;-69
2022/09/04 02:38:00;;;;;;;7.60;7.00;;;;;;;;;;4885722;29;20139;-69
2022/09/04 02:40:33;;;;;;;7.72;7.03;;;;;;;;;;4892922;29;20540;-69
2022/09/04 02:43:01;;;;;;;8.15;7.45;;;;;;;;;;4894280;29;20041;-69
2022/09/04 02:45:34;;;;;;;10.70;7.70;;;;;;;;;;4895107;29;20131;-69
2022/09/04 02:48:13;;;;;;;6.00;5.60;;;;;;;;;;4893733;29;20103;-69
2022/09/04 02:50:45;;;;;;;4.50;4.20;;;;;;;;;;4896168;29;20080;-69
2022/09/04 02:53:12;;;;;;;;;;;;;;;;;;4893997;29;20103;-69
2022/09/04 02:56:07;;;;;;;6.47;4.35;;;;;;;;;;4886444;29;20272;-69
2022/09/04 02:58:50;;;;;;;7.22;6.72;;;;;;;;;;4884815;29;20044;-69
2022/09/04 03:01:28;;;;;;;6.93;6.40;;;;;;;;;;4897300;29;20143;-69
2022/09/04 03:03:58;;;;;;;5.38;4.97;;;;;;;;;;4894826;29;20069;-69
2022/09/04 03:06:49;;;;;;;4.47;4.15;;;;;;;;;;4892053;29;20554;-69
2022/09/04 03:09:20;;;;;;;4.47;4.25;;;;;;;;;;4878302;29;20047;-69
2022/09/04 03:11:51;;;;;;;4.45;4.15;;;;;;;;;;4875020;29;20044;-70
2022/09/04 03:14:19;;;;;;;4.57;4.28;;;;;;;;;;4888010;29;20055;-70
2022/09/04 03:17:19;;;;;;;6.45;5.90;;;;;;;;;;4883218;29;20048;-69
2022/09/04 03:19:50;;;;;;;7.40;6.72;;;;;;;;;;4858788;29;20175;-70
2022/09/04 03:22:26;;;;;;;6.78;6.30;;;;;;;;;;4860381;29;20080;-70
2022/09/04 03:24:56;;;;;;;6.80;6.10;;;;;;;;;;4885566;29;20061;-68
2022/09/04 03:27:24;;;;;;;7.40;6.80;;;;;;;;;;4880676;29;20045;-68
2022/09/04 03:30:02;;;;;;;7.40;6.80;;;;;;;;;;4883023;29;20052;-70
2022/09/04 03:32:42;;;;;;;7.03;6.43;;;;;;;;;;4881703;29;20072;-69
2022/09/04 03:35:19;;;;;;;7.50;6.50;;;;;;;;;;4878726;29;20402;-69
2022/09/04 03:37:54;;;;;;;6.88;6.18;;;;;;;;;;4880395;29;20049;-70
2022/09/04 03:40:28;;;;;;;7.13;6.47;;;;;;;;;;4873002;29;20041;-70
2022/09/04 03:43:10;;;;;;;7.25;6.55;;;;;;;;;;4869511;29;20040;-70
2022/09/04 03:45:43;;;;;;;6.80;6.28;;;;;;;;;;4872456;29;20056;-69
2022/09/04 03:48:14;;;;;;;6.95;6.35;;;;;;;;;;4867799;29;20199;-69
2022/09/04 03:51:00;;;;;;;7.55;6.88;;;;;;;;;;4883397;29;20051;-69
2022/09/04 03:53:32;;;;;;;7.05;6.45;;;;;;;;;;4885479;29;20048;-69
2022/09/04 03:56:18;;;;;;;7.60;6.93;;;;;;;;;;4891799;29;20048;-69
2022/09/04 03:58:45;;;;;;;7.25;6.63;;;;;;;;;;4870700;29;20096;-69
2022/09/04 04:01:31;;;;;;;7.63;6.70;;;;;;;;;;4891338;29;20067;-69
2022/09/04 04:04:14;;;;;;;7.32;6.63;;;;;;;;;;4895749;29;20100;-69
2022/09/04 04:06:48;;;;;;;7.80;7.10;;;;;;;;;;4890382;29;20052;-69
2022/09/04 04:09:24;;;;;;;8.52;7.38;;;;;;;;;;4892512;29;20040;-69
2022/09/04 04:12:11;;;;;;;8.48;7.63;;;;;;;;;;4892784;29;20047;-69
2022/09/04 04:14:42;;;;;;;7.75;7.15;;;;;;;;;;4888462;29;20045;-69
2022/09/04 04:17:12;;;;;;;10.43;9.52;;;;;;;;;;4884481;29;20051;-69
2022/09/04 04:20:01;;;;;;;10.10;9.20;;;;;;;;;;4882271;29;20051;-69
2022/09/04 04:22:47;;;;;;;9.95;8.95;;;;;;;;;;4874680;29;20436;-70
2022/09/04 04:25:23;;;;;;;9.80;9.00;;;;;;;;;;4883074;29;20410;-70
2022/09/04 04:28:11;;;;;;;9.80;8.90;;;;;;;;;;4865000;29;20537;-70
2022/09/04 04:30:48;;;;;;;10.85;9.80;;;;;;;;;;4892276;29;20580;-70
2022/09/04 04:33:18;;;;;;;9.35;8.55;;;;;;;;;;4884934;29;20046;-70
2022/09/04 04:35:55;;;;;;;8.52;7.80;;;;;;;;;;4889347;29;20048;-70
2022/09/04 04:38:23;;;;;;;9.40;8.60;;;;;;;;;;4872371;29;20051;-70
2022/09/04 04:41:09;;;;;;;9.05;8.35;;;;;;;;;;4895715;29;20063;-70
2022/09/04 04:43:50;;;;;;;8.98;8.18;;;;;;;;;;4890108;29;20210;-70
2022/09/04 04:46:37;;;;;;;8.85;8.07;;;;;;;;;;4885700;29;20048;-70
2022/09/04 04:49:28;;;;;;;8.70;8.00;;;;;;;;;;4890225;29;20601;-70
2022/09/04 04:52:15;;;;;;;8.80;7.97;;;;;;;;;;4889067;29;20054;-70
2022/09/04 04:54:50;;;;;;;8.90;8.20;;;;;;;;;;4887905;29;20596;-70
2022/09/04 04:57:31;;;;;;;8.30;7.60;;;;;;;;;;4894320;29;20052;-70
2022/09/04 05:00:04;;;;;;;9.43;8.63;;;;;;;;;;4887330;29;20060;-70
2022/09/04 05:02:37;;;;;;;8.30;7.70;;;;;;;;;;4886117;29;20032;-70
2022/09/04 05:05:18;;;;;;;7.88;7.28;;;;;;;;;;4888989;29;20051;-70
2022/09/04 05:07:54;;;;;;;7.97;7.38;;;;;;;;;;4872867;29;20135;-70
2022/09/04 05:10:31;;;;;;;7.03;6.47;;;;;;;;;;4869632;29;20265;-70
2022/09/04 05:13:19;;;;;;;7.97;7.30;;;;;;;;;;4875162;29;20187;-70
2022/09/04 05:16:02;;;;;;;7.25;6.75;;;;;;;;;;4879923;29;20222;-70
2022/09/04 05:19:11;;;;;;;8.25;7.55;;;;;;;;;;4872366;29;20056;-70
2022/09/04 05:21:41;;;;;;;7.15;6.47;;;;;;;;;;4774910;29;20051;-70
2022/09/04 05:24:17;;;;;;;6.93;6.40;;;;;;;;;;4869434;29;20048;-71
2022/09/04 05:26:57;;;;;;;6.35;5.85;;;;;;;;;;4890629;29;20205;-71
2022/09/04 05:29:34;;;;;;;6.82;6.22;;;;;;;;;;4880656;29;20044;-71
2022/09/04 05:32:10;;;;;;;6.25;5.75;;;;;;;;;;4881400;29;20100;-71
2022/09/04 05:35:01;;;;;;;6.72;6.18;;;;;;;;;;4878798;29;20045;-70
2022/09/04 05:37:29;;;;;;;;;;;;;;;;;;4883324;29;20052;-70
2022/09/04 05:39:59;;;;;;;7.07;6.47;;;;;;;;;;4893317;29;19928;-70
2022/09/04 05:42:44;;;;;;;6.47;5.88;;;;;;;;;;4891457;29;20053;-71
2022/09/04 05:45:20;;;;;;;7.28;6.60;;;;;;;;;;4890744;29;20453;-71
2022/09/04 05:47:56;;;;;;;6.95;6.45;;;;;;;;;;4873717;29;20045;-71
2022/09/04 05:50:27;;;;;;;6.20;5.70;;;;;;;;;;4880301;29;20070;-70
2022/09/04 05:53:10;;;;;;;6.55;6.05;;;;;;;;;;4891182;29;20053;-70
2022/09/04 05:55:58;;;;;;;6.80;5.60;;;;;;;;;;4902768;29;20055;-71
2022/09/04 05:58:34;;;;;;;6.90;6.40;;;;;;;;;;4893575;29;20041;-71
2022/09/04 06:01:28;;;;;;;7.10;6.50;;;;;;;;;;4891239;29;20485;-71
2022/09/04 06:04:14;;;;;;;6.90;6.30;;;;;;;;;;4866073;29;20056;-70
2022/09/04 06:07:01;;;;;;;7.10;6.50;;;;;;;;;;4885972;29;20048;-71
2022/09/04 06:09:35;;;;;;;6.57;5.93;;;;;;;;;;4867495;29;20059;-70
2022/09/04 06:12:11;;;;;;;6.32;5.82;;;;;;;;;;4880818;29;20613;-70
2022/09/04 06:15:03;;;;;;;7.00;6.30;;;;;;;;;;4883393;29;20577;-70
2022/09/04 06:17:50;;;;;;;7.53;6.90;;;;;;;;;;4879782;29;20465;-70
2022/09/04 06:20:35;;;;;;;6.90;6.30;;;;;;;;;;4882085;29;20413;-70
2022/09/04 06:23:15;;;;;;;8.00;7.30;;;;;;;;;;4882809;29;20333;-70
2022/09/04 06:25:45;;;;;;;8.05;7.35;;;;;;;;;;4885002;29;20059;-69
2022/09/04 06:28:13;;;;;;;7.40;6.72;;;;;;;;;;4882078;29;20044;-69
2022/09/04 06:30:59;;;;;;;6.90;6.25;;;;;;;;;;4891428;29;20075;-69
2022/09/04 06:33:35;;;;;;;5.82;5.35;;;;;;;;;;4883038;29;20770;-69
2022/09/04 06:36:32;;;;;;;6.20;5.70;;;;;;;;;;4883245;29;20067;-69
2022/09/04 06:39:08;;;;;;;5.40;5.00;;;;;;;;;;4881867;29;20044;-69
2022/09/04 06:41:51;;;;;;;5.68;5.05;;;;;;;;;;4890493;29;20047;-70
2022/09/04 06:44:24;;;;;;;6.78;6.07;;;;;;;;;;4873590;29;20037;-70
2022/09/04 06:46:52;;;;;;;6.90;6.30;;;;;;;;;;4894987;29;20096;-70
2022/09/04 06:49:39;;;;;;;5.70;5.30;;;;;;;;;;4894343;29;20053;-69
2022/09/04 06:52:21;;;;;;;6.10;5.60;;;;;;;;;;4884814;29;20040;-70
2022/09/04 06:54:58;;;;;;;5.43;5.03;;;;;;;;;;4888397;29;20055;-69
2022/09/04 06:57:47;;;;;;;5.32;4.93;;;;;;;;;;4874963;29;20520;-69
2022/09/04 07:00:15;;;;;;;5.80;5.40;;;;;;;;;;4849670;29;20059;-70
2022/09/04 07:02:45;;;;;;;5.80;5.30;;;;;;;;;;4882172;29;20033;-70
2022/09/04 07:05:23;;;;;;;6.10;5.60;;;;;;;;;;4872471;29;20195;-69
2022/09/04 07:08:06;;;;;;;5.60;5.20;;;;;;;;;;4890450;29;20040;-70
2022/09/04 07:10:35;;;;;;;6.05;5.55;;;;;;;;;;4897109;29;20094;-70
2022/09/04 07:13:20;;;;;;;6.53;5.78;;;;;;;;;;4866168;29;20806;-69
2022/09/04 07:15:51;;;;;;;5.30;4.80;;;;;;;;;;4896720;29;20079;-70
2022/09/04 07:18:41;;;;;;;5.78;5.28;;;;;;;;;;4886198;29;20062;-70
2022/09/04 07:21:14;;;;;;;7.15;6.45;;;;;;;;;;4893722;29;20048;-70
2022/09/04 07:24:01;;;;;;;5.72;5.22;;;;;;;;;;4897285;29;20040;-69
2022/09/04 07:26:37;;;;;;;6.85;5.35;;;;;;;;;;4894633;29;20071;-70
2022/09/04 07:29:14;;;;;;;6.10;5.50;;;;;;;;;;4885275;29;20221;-69
2022/09/04 07:31:48;;;;;;;5.70;5.30;;;;;;;;;;4884348;29;20127;-70
2022/09/04 07:34:23;;;;;;;5.68;5.28;;;;;;;;;;4890244;29;20532;-70
2022/09/04 07:37:00;;;;;;;7.32;6.72;;;;;;;;;;4886484;29;20051;-70
2022/09/04 07:39:27;;;;;;;6.90;6.40;;;;;;;;;;4884332;29;20163;-70
2022/09/04 07:41:58;;;;;;;7.53;6.93;;;;;;;;;;4885549;29;20045;-69
2022/09/04 07:44:41;;;;;;;8.87;8.17;;;;;;;;;;4887132;29;20056;-69
2022/09/04 07:47:17;;;;;;;8.02;7.38;;;;;;;;;;4885069;29;20041;-69
2022/09/04 07:50:03;;;;;;;8.65;7.80;;;;;;;;;;4887240;29;20040;-70
2022/09/04 07:52:30;;;;;;;8.68;7.95;;;;;;;;;;4895125;29;20051;-69
2022/09/04 07:54:58;;;;;;;9.32;8.43;;;;;;;;;;4875374;29;20637;-69
2022/09/04 07:57:25;;;;;;;7.68;7.07;;;;;;;;;;4892489;29;20040;-69
2022/09/04 08:00:02;;;;;;;7.90;7.30;;;;;;;;;;4892045;29;20051;-70
2022/09/04 08:02:47;;;;;;;8.85;8.10;;;;;;;;;;4890358;29;20956;-69
2022/09/04 08:05:22;;;;;;;8.10;7.50;;;;;;;;;;4888302;29;20070;-68
2022/09/04 08:08:03;;;;;;;8.07;7.38;;;;;;;;;;4892233;29;20105;-69
2022/09/04 08:10:38;;;;;;;8.40;7.70;;;;;;;;;;4894540;29;20040;-69
2022/09/04 08:13:17;;;;;;;7.80;7.20;;;;;;;;;;4895780;29;20142;-69
2022/09/04 08:16:04;;;;;;;7.47;6.88;;;;;;;;;;4900160;29;20548;-69
2022/09/04 08:18:40;;;;;;;7.13;6.63;;;;;;;;;;4889813;29;20047;-69
2022/09/04 08:21:22;;;;;;;6.72;6.22;;;;;;;;;;4889490;29;20212;-69
2022/09/04 08:24:04;;;;;;;6.55;6.05;;;;;;;;;;4893410;29;20047;-70
2022/09/04 08:26:41;;;;;;;6.60;6.00;;;;;;;;;;4895483;29;20091;-69
2022/09/04 08:29:12;;;;;;;6.55;6.05;;;;;;;;;;4893423;29;20044;-70
2022/09/04 08:31:40;;;;;;;5.90;5.50;;;;;;;;;;4893686;29;20047;-69
2022/09/04 08:34:30;;;;;;;7.47;6.82;;;;;;;;;;4892260;29;20304;-69
2022/09/04 08:37:08;;;;;;;7.53;6.18;;;;;;;;;;4883545;29;20469;-67
2022/09/04 08:39:35;;;;;;;6.78;6.18;;;;;;;;;;4888154;29;20048;-67
2022/09/04 08:42:12;;;;;;;6.35;5.85;;;;;;;;;;4890763;29;20142;-68
2022/09/04 08:45:02;;;;;;;6.55;6.00;;;;;;;;;;4891449;29;20139;-68
2022/09/04 08:47:43;;;;;;;6.85;6.32;;;;;;;;;;4884286;29;20206;-68
2022/09/04 08:50:22;;;;;;;7.13;5.80;;;;;;;;;;4885517;29;20040;-68
2022/09/04 08:52:52;;;;;;;6.55;6.05;;;;;;;;;;4877506;29;20904;-68
2022/09/04 08:55:20;;;;;;;6.15;5.65;;;;;;;;;;4878971;29;20083;-69
2022/09/04 08:58:20;;;;;;;6.75;6.25;;;;;;;;;;4877770;29;20056;-68
2022/09/04 09:00:54;;;;;;;6.53;6.03;;;;;;;;;;4840246;29;20067;-68
2022/09/04 09:03:40;;;;;;;6.65;6.05;;;;;;;;;;4876811;29;20762;-68
2022/09/04 09:06:26;;;;;;;5.50;5.10;;;;;;;;;;4886889;29;20040;-68
2022/09/04 09:09:32;;;;;;;5.93;5.43;;;;;;;;;;4882035;29;20041;-70
2022/09/04 09:12:18;;;;;;;6.43;5.93;;;;;;;;;;4837973;29;20526;-69
2022/09/04 09:14:57;;;;;;;6.00;5.60;;;;;;;;;;4839761;29;20111;-69
2022/09/04 09:17:38;;;;;;;5.90;5.50;;;;;;;;;;4862707;29;20048;-69
2022/09/04 09:20:23;;;;;;;6.25;5.75;;;;;;;;;;4882617;29;20040;-69
2022/09/04 09:23:10;;;;;;;5.28;4.93;;;;;;;;;;4880783;29;20600;-69
2022/09/04 09:26:05;;;;;;;5.50;5.10;;;;;;;;;;4874930;29;20045;-69
2022/09/04 09:28:50;;;;;;;6.65;5.95;;;;;;;;;;4873065;29;20506;-69
2022/09/04 09:31:27;;;;;;;5.50;5.10;;;;;;;;;;4872055;29;20049;-69
2022/09/04 09:34:13;;;;;;;5.90;5.30;;;;;;;;;;4866327;29;20055;-69
2022/09/04 09:36:43;;;;;;;6.05;5.10;;;;;;;;;;4876552;29;20553;-70
2022/09/04 09:39:29;;;;;;;4.90;4.40;;;;;;;;;;4875705;29;20040;-70
2022/09/04 09:41:59;;;;;;;5.22;4.80;;;;;;;;;;4873465;29;20060;-69
2022/09/04 09:44:38;;;;;;;5.70;5.25;;;;;;;;;;4877508;29;20047;-70
2022/09/04 09:47:07;;;;;;;4.93;4.57;;;;;;;;;;4865459;29;20147;-70
2022/09/04 09:49:40;;;;;;;5.15;4.80;;;;;;;;;;4866990;29;20473;-70
2022/09/04 09:52:28;;;;;;;4.93;4.63;;;;;;;;;;4867186;29;20059;-70
2022/09/04 09:55:08;;;;;;;4.63;4.32;;;;;;;;;;4846855;29;20603;-70
2022/09/04 09:57:44;;;;;;;4.60;4.30;;;;;;;;;;4878820;29;20048;-70
2022/09/04 10:00:16;;;;;;;4.80;4.40;;;;;;;;;;4872022;29;20081;-70
2022/09/04 10:02:59;;;;;;;4.80;4.47;;;;;;;;;;4877819;29;20044;-69
2022/09/04 10:05:45;;;;;;;4.10;3.80;;;;;;;;;;4876289;29;20115;-69
2022/09/04 10:08:17;;;;;;;4.68;4.28;;;;;;;;;;4871332;29;20045;-70
2022/09/04 10:11:09;;;;;;;5.03;3.78;;;;;;;;;;4869557;29;20163;-69
2022/09/04 10:14:04;;;;;;;3.97;3.78;;;;;;;;;;4858288;29;20139;-72
2022/09/04 10:16:51;;;;;;;4.10;3.78;;;;;;;;;;4875295;29;20045;-70
2022/09/04 10:19:25;;;;;;;4.50;4.20;;;;;;;;;;4875147;29;20143;-69
2022/09/04 10:22:13;;;;;;;4.05;3.78;;;;;;;;;;4858030;29;20045;-69
2022/09/04 10:24:46;;;;;;;4.75;3.58;;;;;;;;;;4868690;29;20037;-69
2022/09/04 10:27:26;;;;;;;4.63;4.15;;;;;;;;;;4877605;29;20044;-70
2022/09/04 10:30:06;;;;;;;3.95;3.75;;;;;;;;;;4885958;29;20049;-76
2022/09/04 10:32:40;;;;;;;3.35;3.15;;;;;;;;;;4855182;29;20530;-74
2022/09/04 10:35:14;;;;;;;3.28;3.08;;;;;;;;;;4869111;29;20048;-73
2022/09/04 10:38:00;;;;;;;3.80;3.50;;;;;;;;;;4877682;29;20127;-74
2022/09/04 10:40:39;;;;;;;3.42;3.22;;;;;;;;;;4872239;29;20159;-73
2022/09/04 10:43:30;;;;;;;3.55;3.25;;;;;;;;;;4873524;29;20073;-69
2022/09/04 10:46:08;;;;;;;2.95;2.85;;;;;;;;;;4866496;29;20577;-70
2022/09/04 10:48:46;;;;;;;2.80;2.70;;;;;;;;;;4873944;29;20143;-69
2022/09/04 10:51:33;;;;;;;3.10;2.90;;;;;;;;;;4878872;29;20406;-70
2022/09/04 10:54:19;;;;;;;2.90;2.80;;;;;;;;;;4883637;29;20040;-69
2022/09/04 10:56:56;;;;;;;2.97;2.80;;;;;;;;;;4862689;29;20135;-70
2022/09/04 10:59:36;;;;;;;3.35;3.13;;;;;;;;;;4863997;29;20536;-69
2022/09/04 11:02:21;;;;;;;3.38;3.05;;;;;;;;;;4883426;29;20047;-70
2022/09/04 11:05:08;;;;;;;2.97;2.78;;;;;;;;;;4887353;29;20512;-71
2022/09/04 11:07:41;;;;;;;2.83;2.72;;;;;;;;;;4891775;29;20503;-70
2022/09/04 11:10:12;;;;;;;3.05;2.95;;;;;;;;;;4894446;29;20048;-69
2022/09/04 11:12:47;;;;;;;3.20;2.93;;;;;;;;;;4884826;29;20052;-68
2022/09/04 11:15:24;;;;;;;3.00;2.80;;;;;;;;;;4877641;29;20050;-69
2022/09/04 11:17:57;;;;;;;2.75;2.63;;;;;;;;;;4887850;29;20056;-69
2022/09/04 11:20:44;;;;;;;3.03;2.85;;;;;;;;;;4877811;29;20048;-69
2022/09/04 11:23:30;;;;;;;6.05;5.30;;;;;;;;;;4889539;29;20044;-69
2022/09/04 11:26:06;;;;;;;3.10;2.90;;;;;;;;;;4885384;29;20123;-69
2022/09/04 11:28:55;;;;;;;3.08;2.50;;;;;;;;;;4886922;29;20079;-69
2022/09/04 11:31:45;;;;;;;3.35;2.42;;;;;;;;;;4881328;29;20045;-69
2022/09/04 11:34:32;;;;;;;2.58;2.47;;;;;;;;;;4887027;29;20050;-68
2022/09/04 11:37:02;;;;;;;2.35;2.25;;;;;;;;;;4868674;29;20115;-68
2022/09/04 11:39:42;;;;;;;2.30;2.20;;;;;;;;;;4885548;29;20056;-69
2022/09/04 11:42:28;;;;;;;3.08;2.70;;;;;;;;;;4882905;29;20509;-69
2022/09/04 11:45:14;;;;;;;2.45;2.35;;;;;;;;;;4887866;29;20048;-69
2022/09/04 11:47:55;;;;;;;2.90;2.70;;;;;;;;;;4875541;29;20174;-69
2022/09/04 11:50:33;;;;;;;2.75;2.55;;;;;;;;;;4877970;29;20055;-70
2022/09/04 11:53:20;;;;;;;2.50;2.40;;;;;;;;;;4895417;29;20072;-69
2022/09/04 11:55:47;;;;;;;2.58;2.47;;;;;;;;;;4884361;29;20521;-69
2022/09/04 11:58:37;;;;;;;2.30;2.20;;;;;;;;;;4873041;29;20274;-69
2022/09/04 12:01:24;;;;;;;2.60;2.50;;;;;;;;;;4879105;29;20135;-69
2022/09/04 12:04:10;;;;;;;2.28;2.17;;;;;;;;;;4886604;29;20261;-69
2022/09/04 12:07:07;;;;;;;2.03;1.92;;;;;;;;;;4882125;29;20390;-69
2022/09/04 12:09:35;;;;;;;2.50;2.40;;;;;;;;;;4874495;29;20055;-69
2022/09/04 12:12:09;;;;;;;2.33;2.22;;;;;;;;;;4869717;29;20056;-69
2022/09/04 12:14:48;;;;;;;2.35;2.17;;;;;;;;;;4884136;29;20143;-69
2022/09/04 12:17:35;;;;;;;4.28;1.90;;;;;;;;;;4878109;29;20057;-70
2022/09/04 12:20:22;;;;;;;1.70;1.67;;;;;;;;;;4881788;29;20053;-69
2022/09/04 12:23:09;;;;;;;2.20;2.03;;;;;;;;;;4881215;29;20079;-69
2022/09/04 12:25:37;;;;;;;2.22;2.13;;;;;;;;;;4877658;29;20172;-69
2022/09/04 12:28:25;;;;;;;1.80;1.70;;;;;;;;;;4870280;29;20051;-69
2022/09/04 12:30:58;;;;;;;1.80;1.70;;;;;;;;;;4867844;29;20041;-69
2022/09/04 12:33:36;;;;;;;1.73;1.63;;;;;;;;;;4867109;29;20051;-69
2022/09/04 12:36:16;;;;;;;1.95;1.83;;;;;;;;;;4887634;29;20091;-69
2022/09/04 12:39:02;;;;;;;1.67;1.58;;;;;;;;;;4884895;29;20104;-68
2022/09/04 12:41:42;;;;;;;1.70;1.60;;;;;;;;;;4856412;29;20075;-69
2022/09/04 12:44:18;;;;;;;2.30;1.83;;;;;;;;;;4873120;29;20052;-69
2022/09/04 12:46:49;;;;;;;4.70;1.70;;;;;;;;;;4879905;29;20392;-69
2022/09/04 12:49:31;;;;;;;2.08;1.88;;;;;;;;;;4889205;29;20139;-69
2022/09/04 12:52:01;;;;;;;1.77;1.67;;;;;;;;;;4887021;29;20330;-69
2022/09/04 12:54:32;;;;;;;1.83;1.73;;;;;;;;;;4876755;29;20429;-69
2022/09/04 12:57:18;;;;;;;2.37;1.90;;;;;;;;;;4888948;29;20119;-69
2022/09/04 13:00:12;;;;;;;2.67;1.80;;;;;;;;;;4894394;29;20445;-70
2022/09/04 13:02:48;;;;;;;1.63;1.52;;;;;;;;;;4892051;29;20515;-70
2022/09/04 13:05:26;;;;;;;1.77;1.67;;;;;;;;;;4895411;29;20050;-68
2022/09/04 13:08:18;;;;;;;1.58;1.48;;;;;;;;;;4887020;29;20041;-68
2022/09/04 13:11:12;;;;;;;1.77;1.67;;;;;;;;;;4884909;29;20048;-68
2022/09/04 13:13:42;;;;;;;1.40;1.40;;;;;;;;;;4888796;29;20044;-71
2022/09/04 13:16:28;;;;;;;1.60;1.50;;;;;;;;;;4877858;29;20583;-68
2022/09/04 13:19:14;;;;;;;1.85;1.40;;;;;;;;;;4881032;29;20108;-68
2022/09/04 13:21:53;;;;;;;1.50;1.50;;;;;;;;;;4887190;29;20052;-69
2022/09/04 13:24:44;;;;;;;1.30;1.20;;;;;;;;;;4880300;29;20109;-69
2022/09/04 13:27:33;;;;;;;1.52;1.42;;;;;;;;;;4861235;29;20527;-72
2022/09/04 13:30:06;;;;;;;1.52;1.42;;;;;;;;;;4888089;29;20036;-71
2022/09/04 13:32:34;;;;;;;1.60;1.50;;;;;;;;;;4883324;29;20543;-72
2022/09/04 13:35:11;;;;;;;1.50;1.40;;;;;;;;;;4887379;29;20044;-70
2022/09/04 13:37:52;;;;;;;1.30;1.30;;;;;;;;;;4857134;29;20135;-70
2022/09/04 13:40:38;;;;;;;1.80;1.70;;;;;;;;;;4879875;29;20056;-69
2022/09/04 13:43:17;;;;;;;1.67;1.60;;;;;;;;;;4880235;29;20041;-69
2022/09/04 13:45:49;;;;;;;1.35;1.35;;;;;;;;;;4886085;29;20056;-69
2022/09/04 13:48:21;;;;;;;4.05;1.48;;;;;;;;;;4875005;29;20048;-69
2022/09/04 13:50:54;;;;;;;2.20;1.40;;;;;;;;;;4883036;29;20424;-69
2022/09/04 13:53:39;;;;;;;2.08;1.40;;;;;;;;;;4879907;29;20056;-69
2022/09/04 13:56:10;;;;;;;1.35;1.25;;;;;;;;;;4873931;29;20161;-69
2022/09/04 13:58:45;;;;;;;1.48;1.45;;;;;;;;;;4893008;29;20079;-69
2022/09/04 14:01:15;;;;;;;1.63;1.52;;;;;;;;;;4881483;29;20079;-70
2022/09/04 14:03:43;;;;;;;1.35;1.35;;;;;;;;;;4884351;29;20036;-69
2022/09/04 14:06:13;;;;;;;1.35;1.23;;;;;;;;;;4888247;29;20580;-69
2022/09/04 14:08:42;;;;;;;1.55;1.45;;;;;;;;;;4864300;29;20421;-69
2022/09/04 14:11:43;;;;;;;2.67;1.50;;;;;;;;;;4880607;29;20041;-69
2022/09/04 14:14:11;;;;;;;1.42;1.40;;;;;;;;;;4864057;29;20127;-69
2022/09/04 14:16:40;;;;;;;1.50;1.40;;;;;;;;;;4874903;29;20049;-70
2022/09/04 14:19:16;;;;;;;1.60;1.50;;;;;;;;;;4883999;29;20041;-70
2022/09/04 14:21:54;;;;;;;1.48;1.30;;;;;;;;;;4881724;29;20043;-69
2022/09/04 14:24:21;;;;;;;1.40;1.35;;;;;;;;;;4884149;29;20052;-69
2022/09/04 14:26:57;;;;;;;3.50;1.60;;;;;;;;;;4875427;29;20056;-69
2022/09/04 14:29:46;;;;;;;1.40;1.30;;;;;;;;;;4883881;29;20209;-69
2022/09/04 14:32:27;;;;;;;1.60;1.50;;;;;;;;;;4886202;23;20156;31
2022/09/04 14:35:01;;;;;;;1.55;1.45;;;;;;;;;;4854816;29;20565;-75
2022/09/04 14:37:29;;;;;;;1.38;1.23;;;;;;;;;;4829330;29;20056;-75
2022/09/04 14:40:02;;;;;;;1.42;1.35;;;;;;;;;;4837377;29;20080;-75
2022/09/04 14:42:41;;;;;;;1.60;1.48;;;;;;;;;;4830891;29;20056;-77
2022/09/04 14:45:20;;;;;;;1.30;1.20;;;;;;;;;;4844682;29;20415;-76
2022/09/04 14:47:54;;;;;;;1.58;1.48;;;;;;;;;;4814227;29;20433;-76
2022/09/04 14:50:24;;;;;;;1.60;1.50;;;;;;;;;;4824349;29;20042;-75
2022/09/04 14:52:54;;;;;;;1.37;1.30;;;;;;;;;;4826817;29;20141;-75
2022/09/04 14:55:29;;;;;;;1.30;1.30;;;;;;;;;;4829794;29;20057;-76
2022/09/04 14:57:58;;;;;;;2.47;1.48;;;;;;;;;;4830846;29;20055;-76
2022/09/04 15:00:28;;;;;;;1.25;1.25;;;;;;;;;;4816662;29;20490;-75
2022/09/04 15:02:55;;;;;;;1.40;1.27;;;;;;;;;;4830967;29;20082;-76
2022/09/04 15:05:58;;;;;;;1.50;1.40;;;;;;;;;;4852966;29;20194;-76
2022/09/04 15:08:27;;;;;;;4.43;4.03;;;;;;;;;;4809756;29;20074;-75
2022/09/04 15:11:01;;;;;;;3.65;3.35;;;;;;;;;;4815761;29;20058;-75
2022/09/04 15:13:30;;;;;;;1.67;1.45;;;;;;;;;;4835564;29;20042;-75
2022/09/04 15:16:01;;;;;;;1.63;1.52;;;;;;;;;;4826080;29;20043;-75
2022/09/04 15:18:49;;;;;;;1.95;1.58;;;;;;;;;;4825186;29;20041;-75
2022/09/04 15:21:16;;;;;;;3.70;1.60;;;;;;;;;;4858402;29;20102;-75
2022/09/04 15:24:01;;;;;;;1.77;1.60;;;;;;;;;;4827219;29;20757;-75
2022/09/04 15:26:35;;;;;;;1.70;1.60;;;;;;;;;;4857398;29;20125;-76
2022/09/04 15:29:10;;;;;;;1.30;1.20;;;;;;;;;;4858937;29;20479;-76
2022/09/04 15:31:40;;;;;;;1.60;1.50;;;;;;;;;;4827633;29;20046;-75
2022/09/04 15:34:17;;;;;;;3.20;1.60;;;;;;;;;;4832571;29;20532;-76
2022/09/04 15:36:45;;;;;;;3.08;1.52;;;;;;;;;;4827942;29;20050;-75
2022/09/04 15:39:33;;;;;;;2.30;1.45;;;;;;;;;;4830653;29;20113;-76
2022/09/04 15:42:00;;;;;;;2.47;1.50;;;;;;;;;;4829033;29;20046;-76
2022/09/04 15:44:33;;;;;;;1.40;1.30;;;;;;;;;;4828919;29;20521;-77
2022/09/04 15:47:21;;;;;;;1.27;1.27;;;;;;;;;;4862197;29;20579;-76
2022/09/04 15:49:52;;;;;;;4.85;1.50;;;;;;;;;;4845607;29;20057;-76
2022/09/04 15:52:41;;;;;;;1.75;1.65;;;;;;;;;;4829438;29;20139;-75